createdAt,value
2016-12-31T00:00:11.517Z,-1.13
2016-12-31T00:01:22.906Z,-1.09
2016-12-31T00:02:34.363Z,-1.06
2016-12-31T00:03:45.766Z,-1.09
2016-12-31T00:04:57.166Z,-0.99
2016-12-31T00:06:08.560Z,-0.95
2016-12-31T00:07:19.956Z,-0.93
2016-12-31T00:08:31.417Z,-0.79
2016-12-31T00:09:42.812Z,-0.64
2016-12-31T00:10:54.210Z,-0.62
2016-12-31T00:12:05.614Z,-0.56
2016-12-31T00:13:17.009Z,-0.46
2016-12-31T00:14:28.452Z,-0.58
2016-12-31T00:15:39.858Z,-0.54
2016-12-31T00:16:51.284Z,-0.51
2016-12-31T00:18:02.682Z,-0.41
2016-12-31T00:19:14.083Z,-0.43
2016-12-31T00:20:25.736Z,-0.41
2016-12-31T00:21:37.133Z,-0.41
2016-12-31T00:22:48.540Z,-0.38
2016-12-31T00:23:59.935Z,-0.38
2016-12-31T00:25:11.331Z,-0.41
2016-12-31T00:26:22.784Z,-0.4
2016-12-31T00:27:34.382Z,-0.45
2016-12-31T00:28:45.778Z,-0.34
2016-12-31T00:29:57.171Z,-0.4
2016-12-31T00:31:08.572Z,-0.48
2016-12-31T00:32:20.031Z,-0.48
2016-12-31T00:33:31.429Z,-0.41
2016-12-31T00:34:42.836Z,-0.43
2016-12-31T00:35:54.243Z,-0.33
2016-12-31T00:37:05.650Z,-0.45
2016-12-31T00:38:17.100Z,-0.56
2016-12-31T00:39:28.697Z,-0.54
2016-12-31T00:40:40.093Z,-0.59
2016-12-31T00:41:51.493Z,-0.55
2016-12-31T00:43:02.892Z,-0.67
2016-12-31T00:44:14.438Z,-0.7
2016-12-31T00:45:25.835Z,-0.64
2016-12-31T00:46:37.234Z,-0.58
2016-12-31T00:47:48.629Z,-0.77
2016-12-31T00:49:00.022Z,-0.76
2016-12-31T00:50:11.462Z,-0.76
2016-12-31T00:51:22.856Z,-0.93
2016-12-31T00:52:34.261Z,-1.13
2016-12-31T00:53:45.662Z,-1.06
2016-12-31T00:54:57.067Z,-1.16
2016-12-31T00:56:08.620Z,-1.17
2016-12-31T00:57:20.018Z,-1.17
2016-12-31T00:58:31.426Z,-1.14
2016-12-31T00:59:42.824Z,-1.11
2016-12-31T01:00:54.219Z,-1.07
2016-12-31T01:02:06.067Z,-1.04
2016-12-31T01:03:17.464Z,-0.93
2016-12-31T01:04:28.861Z,-0.87
2016-12-31T01:05:40.270Z,-0.93
2016-12-31T01:06:51.672Z,-0.89
2016-12-31T01:08:03.148Z,-0.95
2016-12-31T01:09:14.742Z,-0.95
2016-12-31T01:10:26.341Z,-1.03
2016-12-31T01:11:37.741Z,-1.1
2016-12-31T01:12:49.343Z,-1.14
2016-12-31T01:14:00.846Z,-1.32
2016-12-31T01:15:12.253Z,-1.31
2016-12-31T01:16:23.848Z,-1.43
2016-12-31T01:17:35.244Z,-1.4
2016-12-31T01:18:46.635Z,-1.35
2016-12-31T01:19:58.133Z,-1.46
2016-12-31T01:21:09.731Z,-1.49
2016-12-31T01:22:21.122Z,-1.52
2016-12-31T01:23:32.723Z,-1.4
2016-12-31T01:24:44.112Z,-1.46
2016-12-31T01:25:55.758Z,-1.53
2016-12-31T01:27:07.160Z,-1.48
2016-12-31T01:28:18.766Z,-1.48
2016-12-31T01:29:30.164Z,-1.48
2016-12-31T01:30:41.568Z,-1.58
2016-12-31T01:31:53.019Z,-1.52
2016-12-31T01:33:04.456Z,-1.58
2016-12-31T01:34:15.848Z,-1.61
2016-12-31T01:35:27.251Z,-1.5
2016-12-31T01:36:38.649Z,-1.43
2016-12-31T01:37:50.094Z,-1.48
2016-12-31T01:39:01.695Z,-1.45
2016-12-31T01:40:13.095Z,-1.38
2016-12-31T01:41:24.496Z,-1.34
2016-12-31T01:42:35.892Z,-1.28
2016-12-31T01:43:47.546Z,-1.35
2016-12-31T01:44:58.941Z,-1.3
2016-12-31T01:46:10.340Z,-1.16
2016-12-31T01:47:21.742Z,-1.14
2016-12-31T01:48:33.387Z,-1.16
2016-12-31T01:49:44.785Z,-1.17
2016-12-31T01:50:56.177Z,-1.24
2016-12-31T01:52:07.572Z,-1.11
2016-12-31T01:53:18.969Z,-1.09
2016-12-31T01:54:30.421Z,-1.11
2016-12-31T01:55:41.822Z,-0.99
2016-12-31T01:56:53.431Z,-1.04
2016-12-31T01:58:04.838Z,-1.03
2016-12-31T01:59:16.435Z,-0.96
2016-12-31T02:00:27.876Z,-0.98
2016-12-31T02:01:39.272Z,-0.99
2016-12-31T02:02:50.666Z,-1.07
2016-12-31T02:04:02.061Z,-1.11
2016-12-31T02:05:13.464Z,-1.07
2016-12-31T02:06:24.919Z,-1.31
2016-12-31T02:07:36.322Z,-1.45
2016-12-31T02:08:47.726Z,-1.46
2016-12-31T02:09:59.349Z,-1.46
2016-12-31T02:11:10.748Z,-1.48
2016-12-31T02:12:22.403Z,-1.43
2016-12-31T02:13:33.796Z,-1.45
2016-12-31T02:14:45.194Z,-1.27
2016-12-31T02:15:56.580Z,-1.28
2016-12-31T02:17:07.986Z,-1.21
2016-12-31T02:18:19.427Z,-1.11
2016-12-31T02:19:30.824Z,-1.11
2016-12-31T02:20:42.219Z,-1.09
2016-12-31T02:21:53.814Z,-0.99
2016-12-31T02:23:05.419Z,-1.06
2016-12-31T02:24:16.865Z,-0.99
2016-12-31T02:25:28.469Z,-0.99
2016-12-31T02:26:40.276Z,-0.98
2016-12-31T02:27:51.679Z,-0.95
2016-12-31T02:29:03.072Z,-0.98
2016-12-31T02:30:14.723Z,-0.93
2016-12-31T02:31:26.317Z,-0.91
2016-12-31T02:32:37.715Z,-0.93
2016-12-31T02:33:49.313Z,-1.03
2016-12-31T02:35:00.704Z,-1.25
2016-12-31T02:36:12.152Z,-1.19
2016-12-31T02:37:23.549Z,-1.25
2016-12-31T02:38:34.975Z,-1.3
2016-12-31T02:39:46.373Z,-1.5
2016-12-31T02:40:57.773Z,-1.63
2016-12-31T02:42:09.224Z,-1.67
2016-12-31T02:43:20.620Z,-1.67
2016-12-31T02:44:32.220Z,-1.73
2016-12-31T02:45:43.628Z,-1.63
2016-12-31T02:46:55.027Z,-1.71
2016-12-31T02:48:06.474Z,-1.7
2016-12-31T02:49:17.876Z,-1.63
2016-12-31T02:50:29.288Z,-1.7
2016-12-31T02:51:40.688Z,-1.68
2016-12-31T02:52:52.085Z,-1.7
2016-12-31T02:54:03.528Z,-1.66
2016-12-31T02:55:14.926Z,-1.68
2016-12-31T02:56:26.327Z,-1.84
2016-12-31T02:57:37.728Z,-1.78
2016-12-31T02:58:49.135Z,-1.79
2016-12-31T03:00:00.583Z,-1.82
2016-12-31T03:01:11.991Z,-1.79
2016-12-31T03:02:23.391Z,-1.71
2016-12-31T03:03:34.787Z,-1.61
2016-12-31T03:04:46.183Z,-1.56
2016-12-31T03:05:57.634Z,-1.61
2016-12-31T03:07:09.035Z,-1.66
2016-12-31T03:08:20.429Z,-1.6
2016-12-31T03:09:32.031Z,-1.64
2016-12-31T03:10:43.463Z,-1.71
2016-12-31T03:11:54.912Z,-1.81
2016-12-31T03:13:06.306Z,-1.92
2016-12-31T03:14:17.696Z,-1.91
2016-12-31T03:15:29.095Z,-2
2016-12-31T03:16:40.504Z,-1.96
2016-12-31T03:17:52.151Z,-1.85
2016-12-31T03:19:03.542Z,-1.94
2016-12-31T03:20:14.933Z,-1.82
2016-12-31T03:21:26.340Z,-1.82
2016-12-31T03:22:37.735Z,-1.81
2016-12-31T03:23:49.194Z,-1.78
2016-12-31T03:25:00.587Z,-1.81
2016-12-31T03:26:11.996Z,-1.74
2016-12-31T03:27:23.389Z,-1.67
2016-12-31T03:28:34.792Z,-1.6
2016-12-31T03:29:46.244Z,-1.58
2016-12-31T03:30:57.656Z,-1.55
2016-12-31T03:32:09.064Z,-1.43
2016-12-31T03:33:20.466Z,-1.53
2016-12-31T03:34:32.079Z,-1.49
2016-12-31T03:35:43.530Z,-1.48
2016-12-31T03:36:54.928Z,-1.38
2016-12-31T03:38:06.321Z,-1.4
2016-12-31T03:39:18.127Z,-1.35
2016-12-31T03:40:29.518Z,-1.4
2016-12-31T03:41:40.967Z,-1.31
2016-12-31T03:42:52.377Z,-1.25
2016-12-31T03:44:03.776Z,-1.3
2016-12-31T03:45:15.188Z,-1.28
2016-12-31T03:46:26.579Z,-1.34
2016-12-31T03:47:38.236Z,-1.35
2016-12-31T03:48:49.636Z,-1.34
2016-12-31T03:50:01.030Z,-1.52
2016-12-31T03:51:12.434Z,-1.55
2016-12-31T03:52:23.832Z,-1.56
2016-12-31T03:53:35.486Z,-1.55
2016-12-31T03:54:46.885Z,-1.64
2016-12-31T03:55:58.289Z,-1.7
2016-12-31T03:57:09.686Z,-1.76
2016-12-31T03:58:21.100Z,-1.71
2016-12-31T03:59:32.546Z,-1.74
2016-12-31T04:00:43.943Z,-1.68
2016-12-31T04:01:55.337Z,-1.66
2016-12-31T04:03:06.734Z,-1.63
2016-12-31T04:04:18.128Z,-1.6
2016-12-31T04:05:29.575Z,-1.56
2016-12-31T04:06:40.969Z,-1.45
2016-12-31T04:07:52.376Z,-1.38
2016-12-31T04:09:03.785Z,-1.38
2016-12-31T04:10:15.185Z,-1.27
2016-12-31T04:11:26.626Z,-1.28
2016-12-31T04:12:38.059Z,-1.28
2016-12-31T04:13:49.456Z,-1.17
2016-12-31T04:15:00.850Z,-1.16
2016-12-31T04:16:12.242Z,-1.11
2016-12-31T04:17:23.690Z,-1.06
2016-12-31T04:18:35.293Z,-1.07
2016-12-31T04:19:46.698Z,-0.98
2016-12-31T04:20:58.088Z,-0.96
2016-12-31T04:22:09.687Z,-0.99
2016-12-31T04:23:21.136Z,-0.99
2016-12-31T04:24:32.532Z,-0.96
2016-12-31T04:25:43.933Z,-0.87
2016-12-31T04:26:55.329Z,-0.92
2016-12-31T04:28:06.756Z,-0.93
2016-12-31T04:29:18.210Z,-0.89
2016-12-31T04:30:29.608Z,-0.84
2016-12-31T04:31:40.998Z,-0.85
2016-12-31T04:32:52.409Z,-0.92
2016-12-31T04:34:03.809Z,-0.89
2016-12-31T04:35:15.255Z,-0.89
2016-12-31T04:36:26.646Z,-0.82
2016-12-31T04:37:38.077Z,-0.95
2016-12-31T04:38:49.470Z,-0.91
2016-12-31T04:40:01.074Z,-0.85
2016-12-31T04:41:12.758Z,-0.73
2016-12-31T04:42:24.166Z,-0.79
2016-12-31T04:43:35.568Z,-0.85
2016-12-31T04:44:47.173Z,-0.89
2016-12-31T04:45:58.566Z,-0.82
2016-12-31T04:47:10.028Z,-0.84
2016-12-31T04:48:21.451Z,-0.82
2016-12-31T04:49:32.853Z,-0.8
2016-12-31T04:50:44.255Z,-0.8
2016-12-31T04:51:55.653Z,-0.85
2016-12-31T04:53:07.099Z,-0.74
2016-12-31T04:54:18.501Z,-0.96
2016-12-31T04:55:29.899Z,-0.95
2016-12-31T04:56:41.296Z,-0.95
2016-12-31T04:57:52.702Z,-0.92
2016-12-31T04:59:04.160Z,-0.93
2016-12-31T05:00:15.564Z,-1.01
2016-12-31T05:01:26.963Z,-0.99
2016-12-31T05:02:38.356Z,-0.99
2016-12-31T05:03:49.748Z,-1.01
2016-12-31T05:05:01.205Z,-1.04
2016-12-31T05:06:12.618Z,-1.09
2016-12-31T05:07:24.020Z,-1.24
2016-12-31T05:08:35.418Z,-1.27
2016-12-31T05:09:46.822Z,-1.35
2016-12-31T05:10:58.295Z,-1.38
2016-12-31T05:12:09.702Z,-1.46
2016-12-31T05:13:21.103Z,-1.49
2016-12-31T05:14:32.499Z,-1.4
2016-12-31T05:15:43.895Z,-1.35
2016-12-31T05:16:55.350Z,-1.38
2016-12-31T05:18:06.953Z,-1.5
2016-12-31T05:19:18.373Z,-1.49
2016-12-31T05:20:29.763Z,-1.4
2016-12-31T05:21:41.167Z,-1.43
2016-12-31T05:22:52.610Z,-1.46
2016-12-31T05:24:04.009Z,-1.4
2016-12-31T05:25:15.606Z,-1.34
2016-12-31T05:26:27.007Z,-1.5
2016-12-31T05:27:38.606Z,-1.45
2016-12-31T05:28:50.061Z,-1.49
2016-12-31T05:30:01.462Z,-1.52
2016-12-31T05:31:12.861Z,-1.32
2016-12-31T05:32:24.256Z,-1.31
2016-12-31T05:33:35.860Z,-1.19
2016-12-31T05:34:47.325Z,-1.24
2016-12-31T05:35:58.720Z,-1.21
2016-12-31T05:37:10.327Z,-1.22
2016-12-31T05:38:21.934Z,-1.27
2016-12-31T05:39:33.535Z,-1.17
2016-12-31T05:40:44.984Z,-1.3
2016-12-31T05:41:56.589Z,-1.27
2016-12-31T05:43:07.988Z,-1.32
2016-12-31T05:44:19.404Z,-1.38
2016-12-31T05:45:30.808Z,-1.52
2016-12-31T05:46:42.259Z,-1.61
2016-12-31T05:47:53.861Z,-1.52
2016-12-31T05:49:05.258Z,-1.58
2016-12-31T05:50:16.650Z,-1.61
2016-12-31T05:51:28.050Z,-1.49
2016-12-31T05:52:39.502Z,-1.63
2016-12-31T05:53:50.904Z,-1.63
2016-12-31T05:55:02.300Z,-1.55
2016-12-31T05:56:13.900Z,-1.73
2016-12-31T05:57:25.299Z,-1.82
2016-12-31T05:58:36.750Z,-1.84
2016-12-31T05:59:48.355Z,-1.82
2016-12-31T06:00:59.956Z,-1.85
2016-12-31T06:02:11.359Z,-1.88
2016-12-31T06:03:22.753Z,-1.81
2016-12-31T06:04:34.201Z,-1.76
2016-12-31T06:05:45.604Z,-1.7
2016-12-31T06:06:56.999Z,-1.73
2016-12-31T06:08:08.397Z,-1.66
2016-12-31T06:09:19.789Z,-1.67
2016-12-31T06:10:31.232Z,-1.6
2016-12-31T06:11:42.630Z,-1.49
2016-12-31T06:12:54.030Z,-1.46
2016-12-31T06:14:05.429Z,-1.53
2016-12-31T06:15:16.820Z,-1.42
2016-12-31T06:16:28.269Z,-1.3
2016-12-31T06:17:39.661Z,-1.28
2016-12-31T06:18:51.059Z,-1.22
2016-12-31T06:20:02.458Z,-1.16
2016-12-31T06:21:13.852Z,-1.11
2016-12-31T06:22:25.296Z,-1.06
2016-12-31T06:23:36.703Z,-0.91
2016-12-31T06:24:48.102Z,-0.87
2016-12-31T06:25:59.498Z,-0.82
2016-12-31T06:27:11.103Z,-0.79
2016-12-31T06:28:22.548Z,-0.72
2016-12-31T06:29:33.943Z,-0.69
2016-12-31T06:30:45.340Z,-0.69
2016-12-31T06:31:56.734Z,-0.72
2016-12-31T06:33:08.126Z,-0.69
2016-12-31T06:34:19.780Z,-0.66
2016-12-31T06:35:31.187Z,-0.58
2016-12-31T06:36:42.573Z,-0.55
2016-12-31T06:37:54.182Z,-0.43
2016-12-31T06:39:05.582Z,-0.38
2016-12-31T06:40:17.234Z,-0.4
2016-12-31T06:41:28.826Z,-0.4
2016-12-31T06:42:40.421Z,-0.43
2016-12-31T06:43:51.822Z,-0.45
2016-12-31T06:45:03.221Z,-0.37
2016-12-31T06:46:14.680Z,-0.46
2016-12-31T06:47:26.075Z,-0.43
2016-12-31T06:48:37.473Z,-0.3
2016-12-31T06:49:48.878Z,-0.3
2016-12-31T06:51:00.273Z,-0.19
2016-12-31T06:52:11.725Z,-0.27
2016-12-31T06:53:23.321Z,-0.16
2016-12-31T06:54:34.719Z,-0.18
2016-12-31T06:55:46.116Z,-0.16
2016-12-31T06:56:57.717Z,-0.13
2016-12-31T06:58:09.358Z,-0.07
2016-12-31T06:59:20.749Z,-0.1
2016-12-31T07:00:32.357Z,-0.1
2016-12-31T07:01:43.745Z,0.02
2016-12-31T07:02:55.143Z,0.09
2016-12-31T07:04:06.591Z,-0.01
2016-12-31T07:05:17.984Z,0.09
2016-12-31T07:06:29.390Z,0.13
2016-12-31T07:07:40.792Z,0.1
2016-12-31T07:08:52.396Z,0.13
2016-12-31T07:10:03.839Z,0.17
2016-12-31T07:11:15.436Z,0.1
2016-12-31T07:12:26.836Z,0.13
2016-12-31T07:13:38.243Z,0.09
2016-12-31T07:14:49.643Z,-0.02
2016-12-31T07:16:01.101Z,0.03
2016-12-31T07:17:12.510Z,0.02
2016-12-31T07:18:23.913Z,0.05
2016-12-31T07:19:35.318Z,0.02
2016-12-31T07:20:46.741Z,0.09
2016-12-31T07:21:58.191Z,-0.01
2016-12-31T07:23:09.591Z,-0.01
2016-12-31T07:24:20.995Z,0.01
2016-12-31T07:25:32.389Z,-0.01
2016-12-31T07:26:43.990Z,0.01
2016-12-31T07:27:55.449Z,0.01
2016-12-31T07:29:06.856Z,0.01
2016-12-31T07:30:18.255Z,0.14
2016-12-31T07:31:29.655Z,0.06
2016-12-31T07:32:41.057Z,0.08
2016-12-31T07:33:52.502Z,0.14
2016-12-31T07:35:03.895Z,0.16
2016-12-31T07:36:15.699Z,0.23
2016-12-31T07:37:27.107Z,0.16
2016-12-31T07:38:38.504Z,0.14
2016-12-31T07:39:49.954Z,0.16
2016-12-31T07:41:01.347Z,0.13
2016-12-31T07:42:12.740Z,0.14
2016-12-31T07:43:24.135Z,0.01
2016-12-31T07:44:35.736Z,0.01
2016-12-31T07:45:47.191Z,-0.01
2016-12-31T07:46:58.589Z,-0.05
2016-12-31T07:48:09.999Z,0.09
2016-12-31T07:49:21.403Z,0.09
2016-12-31T07:50:32.800Z,0.13
2016-12-31T07:51:44.451Z,0.14
2016-12-31T07:52:55.851Z,0.09
2016-12-31T07:54:07.255Z,0.01
2016-12-31T07:55:18.651Z,-0.04
2016-12-31T07:56:30.256Z,-0.01
2016-12-31T07:57:41.702Z,0.03
2016-12-31T07:58:53.302Z,0.03
2016-12-31T08:00:04.698Z,0.1
2016-12-31T08:01:16.097Z,0.05
2016-12-31T08:02:27.727Z,0.02
2016-12-31T08:03:39.229Z,0.13
2016-12-31T08:04:50.634Z,0.17
2016-12-31T08:06:02.229Z,0.03
2016-12-31T08:07:13.627Z,0.09
2016-12-31T08:08:25.029Z,0.01
2016-12-31T08:09:36.472Z,0.03
2016-12-31T08:10:48.075Z,0.14
2016-12-31T08:11:59.457Z,0.13
2016-12-31T08:13:10.854Z,0.13
2016-12-31T08:14:22.660Z,0.16
2016-12-31T08:15:34.106Z,0.23
2016-12-31T08:16:45.503Z,0.27
2016-12-31T08:17:56.906Z,0.23
2016-12-31T08:19:08.302Z,0.23
2016-12-31T08:20:19.900Z,0.39
2016-12-31T08:21:31.344Z,0.39
2016-12-31T08:22:42.740Z,0.42
2016-12-31T08:23:54.341Z,0.41
2016-12-31T08:25:05.943Z,0.38
2016-12-31T08:26:17.336Z,0.37
2016-12-31T08:27:28.784Z,0.42
2016-12-31T08:28:40.191Z,0.41
2016-12-31T08:29:51.592Z,0.41
2016-12-31T08:31:02.988Z,0.42
2016-12-31T08:32:14.384Z,0.38
2016-12-31T08:33:25.830Z,0.32
2016-12-31T08:34:37.224Z,0.39
2016-12-31T08:35:48.822Z,0.39
2016-12-31T08:37:00.425Z,0.34
2016-12-31T08:38:11.823Z,0.42
2016-12-31T08:39:23.280Z,0.34
2016-12-31T08:40:34.679Z,0.42
2016-12-31T08:41:46.079Z,0.5
2016-12-31T08:42:57.487Z,0.41
2016-12-31T08:44:08.883Z,0.32
2016-12-31T08:45:20.325Z,0.35
2016-12-31T08:46:31.928Z,0.37
2016-12-31T08:47:43.530Z,0.35
2016-12-31T08:48:54.931Z,0.32
2016-12-31T08:50:06.329Z,0.37
2016-12-31T08:51:17.779Z,0.34
2016-12-31T08:52:29.376Z,0.58
2016-12-31T08:53:40.774Z,0.56
2016-12-31T08:54:52.181Z,0.61
2016-12-31T08:56:03.568Z,0.66
2016-12-31T08:57:15.014Z,0.74
2016-12-31T08:58:26.423Z,0.79
2016-12-31T08:59:37.816Z,0.85
2016-12-31T09:00:49.214Z,0.82
2016-12-31T09:02:00.617Z,0.81
2016-12-31T09:03:12.063Z,0.81
2016-12-31T09:04:23.458Z,0.85
2016-12-31T09:05:34.864Z,0.85
2016-12-31T09:06:46.260Z,0.76
2016-12-31T09:07:57.654Z,0.69
2016-12-31T09:09:09.304Z,0.71
2016-12-31T09:10:20.904Z,0.72
2016-12-31T09:11:32.306Z,0.76
2016-12-31T09:12:43.917Z,0.79
2016-12-31T09:13:55.317Z,0.78
2016-12-31T09:15:06.794Z,0.79
2016-12-31T09:16:18.388Z,0.66
2016-12-31T09:17:29.782Z,0.56
2016-12-31T09:18:41.393Z,0.56
2016-12-31T09:19:52.790Z,0.6
2016-12-31T09:21:04.442Z,0.71
2016-12-31T09:22:16.047Z,0.74
2016-12-31T09:23:27.440Z,0.78
2016-12-31T09:24:38.833Z,0.85
2016-12-31T09:25:50.231Z,0.86
2016-12-31T09:27:01.676Z,0.84
2016-12-31T09:28:13.083Z,0.75
2016-12-31T09:29:24.481Z,0.78
2016-12-31T09:30:35.889Z,0.75
2016-12-31T09:31:47.285Z,0.9
2016-12-31T09:32:58.733Z,0.84
2016-12-31T09:34:10.136Z,0.72
2016-12-31T09:35:21.537Z,0.71
2016-12-31T09:36:33.137Z,0.72
2016-12-31T09:37:44.535Z,0.74
2016-12-31T09:38:55.977Z,0.85
2016-12-31T09:40:07.382Z,0.74
2016-12-31T09:41:18.781Z,0.75
2016-12-31T09:42:30.185Z,0.67
2016-12-31T09:43:41.583Z,0.74
2016-12-31T09:44:53.041Z,0.72
2016-12-31T09:46:04.438Z,0.71
2016-12-31T09:47:15.844Z,0.74
2016-12-31T09:48:27.247Z,0.75
2016-12-31T09:49:38.850Z,0.75
2016-12-31T09:50:50.311Z,0.85
2016-12-31T09:52:01.704Z,0.79
2016-12-31T09:53:13.103Z,0.96
2016-12-31T09:54:24.507Z,1
2016-12-31T09:55:35.906Z,0.84
2016-12-31T09:56:47.361Z,0.67
2016-12-31T09:57:58.753Z,0.69
2016-12-31T09:59:10.160Z,0.78
2016-12-31T10:00:21.751Z,0.82
2016-12-31T10:01:33.345Z,0.9
2016-12-31T10:02:44.800Z,0.86
2016-12-31T10:03:56.199Z,0.89
2016-12-31T10:05:07.603Z,0.9
2016-12-31T10:06:19.009Z,0.93
2016-12-31T10:07:30.417Z,0.82
2016-12-31T10:08:41.869Z,0.74
2016-12-31T10:09:53.264Z,0.69
2016-12-31T10:11:04.671Z,0.81
2016-12-31T10:12:16.276Z,0.69
2016-12-31T10:13:27.674Z,0.64
2016-12-31T10:14:39.133Z,0.67
2016-12-31T10:15:50.556Z,0.75
2016-12-31T10:17:01.958Z,0.85
2016-12-31T10:18:13.360Z,0.9
2016-12-31T10:19:24.767Z,0.9
2016-12-31T10:20:36.166Z,0.74
2016-12-31T10:21:47.573Z,0.81
2016-12-31T10:22:58.962Z,0.75
2016-12-31T10:24:10.355Z,0.74
2016-12-31T10:25:21.799Z,0.74
2016-12-31T10:26:33.193Z,0.82
2016-12-31T10:27:44.592Z,0.81
2016-12-31T10:28:55.980Z,0.82
2016-12-31T10:30:07.412Z,0.74
2016-12-31T10:31:18.872Z,0.67
2016-12-31T10:32:30.271Z,0.61
2016-12-31T10:33:41.870Z,0.63
2016-12-31T10:34:53.678Z,0.56
2016-12-31T10:36:05.080Z,0.58
2016-12-31T10:37:16.529Z,0.71
2016-12-31T10:38:27.933Z,0.74
2016-12-31T10:39:39.330Z,0.84
2016-12-31T10:40:50.928Z,0.69
2016-12-31T10:42:02.338Z,0.84
2016-12-31T10:43:13.777Z,0.85
2016-12-31T10:44:25.173Z,0.96
2016-12-31T10:45:36.780Z,0.96
2016-12-31T10:46:48.180Z,0.92
2016-12-31T10:47:59.581Z,0.96
2016-12-31T10:49:11.023Z,0.93
2016-12-31T10:50:22.426Z,0.85
2016-12-31T10:51:33.836Z,0.85
2016-12-31T10:52:45.439Z,0.92
2016-12-31T10:53:56.838Z,0.94
2016-12-31T10:55:08.492Z,0.85
2016-12-31T10:56:19.895Z,0.84
2016-12-31T10:57:31.304Z,0.82
2016-12-31T10:58:42.715Z,0.93
2016-12-31T10:59:54.538Z,0.96
2016-12-31T11:01:05.990Z,0.81
2016-12-31T11:02:17.400Z,0.78
2016-12-31T11:03:28.803Z,0.84
2016-12-31T11:04:40.211Z,0.78
2016-12-31T11:05:51.613Z,0.82
2016-12-31T11:07:03.055Z,0.72
2016-12-31T11:08:14.451Z,0.63
2016-12-31T11:09:25.856Z,0.5
2016-12-31T11:10:37.493Z,0.64
2016-12-31T11:11:49.093Z,0.92
2016-12-31T11:13:00.546Z,0.92
2016-12-31T11:14:11.942Z,1.02
2016-12-31T11:15:23.351Z,1.04
2016-12-31T11:16:34.741Z,1
2016-12-31T11:17:46.170Z,1.04
2016-12-31T11:18:57.619Z,1.1
2016-12-31T11:20:09.022Z,1.07
2016-12-31T11:21:20.414Z,1.07
2016-12-31T11:22:32.030Z,1.03
2016-12-31T11:23:43.438Z,1.11
2016-12-31T11:24:54.889Z,1.08
2016-12-31T11:26:06.291Z,1.03
2016-12-31T11:27:17.693Z,1
2016-12-31T11:28:29.095Z,0.96
2016-12-31T11:29:40.525Z,1.03
2016-12-31T11:30:52.184Z,1.11
2016-12-31T11:32:03.580Z,1.2
2016-12-31T11:33:14.988Z,1.24
2016-12-31T11:34:26.581Z,1.22
2016-12-31T11:35:38.183Z,1.15
2016-12-31T11:36:49.639Z,1.21
2016-12-31T11:38:01.043Z,1.26
2016-12-31T11:39:12.445Z,1.2
2016-12-31T11:40:23.841Z,1.3
2016-12-31T11:41:35.239Z,1.21
2016-12-31T11:42:46.688Z,1.35
2016-12-31T11:43:58.091Z,1.29
2016-12-31T11:45:09.483Z,1.32
2016-12-31T11:46:20.884Z,1.32
2016-12-31T11:47:32.479Z,1.32
2016-12-31T11:48:43.923Z,1.35
2016-12-31T11:49:55.324Z,1.4
2016-12-31T11:51:06.726Z,1.42
2016-12-31T11:52:18.540Z,1.47
2016-12-31T11:53:29.946Z,1.35
2016-12-31T11:54:41.595Z,1.3
2016-12-31T11:55:53.201Z,1.17
2016-12-31T11:57:04.797Z,1.24
2016-12-31T11:58:16.205Z,1.21
2016-12-31T11:59:27.803Z,1.29
2016-12-31T12:00:39.252Z,1.3
2016-12-31T12:01:50.655Z,1.32
2016-12-31T12:03:02.060Z,1.29
2016-12-31T12:04:13.455Z,1.35
2016-12-31T12:05:24.853Z,1.4
2016-12-31T12:06:36.507Z,1.4
2016-12-31T12:07:47.911Z,1.48
2016-12-31T12:08:59.308Z,1.53
2016-12-31T12:10:10.705Z,1.46
2016-12-31T12:11:22.297Z,1.36
2016-12-31T12:12:33.747Z,1.48
2016-12-31T12:13:45.144Z,1.4
2016-12-31T12:14:56.569Z,1.3
2016-12-31T12:16:08.174Z,1.3
2016-12-31T12:17:19.597Z,1.15
2016-12-31T12:18:31.056Z,1.33
2016-12-31T12:19:42.456Z,1.18
2016-12-31T12:20:53.860Z,1.2
2016-12-31T12:22:05.263Z,1.15
2016-12-31T12:23:16.666Z,1.03
2016-12-31T12:24:28.117Z,1.07
2016-12-31T12:25:39.530Z,1.04
2016-12-31T12:26:51.134Z,1.17
2016-12-31T12:28:02.535Z,1.17
2016-12-31T12:29:13.939Z,1.21
2016-12-31T12:30:25.389Z,1.28
2016-12-31T12:31:36.794Z,1.28
2016-12-31T12:32:48.204Z,1.17
2016-12-31T12:34:00.010Z,1.26
2016-12-31T12:35:11.416Z,1.21
2016-12-31T12:36:23.063Z,1.24
2016-12-31T12:37:34.467Z,1.32
2016-12-31T12:38:45.872Z,1.29
2016-12-31T12:39:57.280Z,1.22
2016-12-31T12:41:08.681Z,1.22
2016-12-31T12:42:20.334Z,1.24
2016-12-31T12:43:31.744Z,1.17
2016-12-31T12:44:43.147Z,1.15
2016-12-31T12:45:54.554Z,1.1
2016-12-31T12:47:05.954Z,1.28
2016-12-31T12:48:17.600Z,1.35
2016-12-31T12:49:28.999Z,1.47
2016-12-31T12:50:40.398Z,1.33
2016-12-31T12:51:52.035Z,1.39
2016-12-31T12:53:03.445Z,1.5
2016-12-31T12:54:14.924Z,1.5
2016-12-31T12:55:26.328Z,1.51
2016-12-31T12:56:37.727Z,1.54
2016-12-31T12:57:49.134Z,1.48
2016-12-31T12:59:00.534Z,1.57
2016-12-31T13:00:11.993Z,1.5
2016-12-31T13:01:23.402Z,1.5
2016-12-31T13:02:34.798Z,1.42
2016-12-31T13:03:46.196Z,1.51
2016-12-31T13:04:57.799Z,1.57
2016-12-31T13:06:09.248Z,1.53
2016-12-31T13:07:20.648Z,1.51
2016-12-31T13:08:32.054Z,1.54
2016-12-31T13:09:43.450Z,1.5
2016-12-31T13:10:55.257Z,1.6
2016-12-31T13:12:06.707Z,1.56
2016-12-31T13:13:18.303Z,1.57
2016-12-31T13:14:29.900Z,1.57
2016-12-31T13:15:41.501Z,1.6
2016-12-31T13:16:52.899Z,1.57
2016-12-31T13:18:04.346Z,1.64
2016-12-31T13:19:15.744Z,1.64
2016-12-31T13:20:27.346Z,1.61
2016-12-31T13:21:38.762Z,1.54
2016-12-31T13:22:50.159Z,1.51
2016-12-31T13:24:01.616Z,1.48
2016-12-31T13:25:13.015Z,1.64
2016-12-31T13:26:24.419Z,1.75
2016-12-31T13:27:35.816Z,1.69
2016-12-31T13:28:47.241Z,1.6
2016-12-31T13:29:58.892Z,1.58
2016-12-31T13:31:10.295Z,1.65
2016-12-31T13:32:21.694Z,1.61
2016-12-31T13:33:33.122Z,1.58
2016-12-31T13:34:44.523Z,1.76
2016-12-31T13:35:55.973Z,1.64
2016-12-31T13:37:07.379Z,1.53
2016-12-31T13:38:18.774Z,1.65
2016-12-31T13:39:30.377Z,1.58
2016-12-31T13:40:41.776Z,1.66
2016-12-31T13:41:53.267Z,1.68
2016-12-31T13:43:04.668Z,1.71
2016-12-31T13:44:16.065Z,1.79
2016-12-31T13:45:27.493Z,1.76
2016-12-31T13:46:38.883Z,1.86
2016-12-31T13:47:50.280Z,1.87
2016-12-31T13:49:01.910Z,1.83
2016-12-31T13:50:13.308Z,1.82
2016-12-31T13:51:24.915Z,1.82
2016-12-31T13:52:36.505Z,1.87
2016-12-31T13:53:47.964Z,2.01
2016-12-31T13:54:59.372Z,2.02
2016-12-31T13:56:10.770Z,2.01
2016-12-31T13:57:22.157Z,1.98
2016-12-31T13:58:33.554Z,1.98
2016-12-31T13:59:45.003Z,1.98
2016-12-31T14:00:56.406Z,2.05
2016-12-31T14:02:07.809Z,2.01
2016-12-31T14:03:19.203Z,2.06
2016-12-31T14:04:30.609Z,2.01
2016-12-31T14:05:42.055Z,2.01
2016-12-31T14:06:53.451Z,1.97
2016-12-31T14:08:04.862Z,1.87
2016-12-31T14:09:16.292Z,1.82
2016-12-31T14:10:27.899Z,1.93
2016-12-31T14:11:39.348Z,1.9
2016-12-31T14:12:50.750Z,1.78
2016-12-31T14:14:02.162Z,1.93
2016-12-31T14:15:13.573Z,1.89
2016-12-31T14:16:24.974Z,1.82
2016-12-31T14:17:36.426Z,1.9
2016-12-31T14:18:47.833Z,1.92
2016-12-31T14:19:59.432Z,1.92
2016-12-31T14:21:11.037Z,1.92
2016-12-31T14:22:22.639Z,1.98
2016-12-31T14:23:34.088Z,2.02
2016-12-31T14:24:45.489Z,1.89
2016-12-31T14:25:56.897Z,1.89
2016-12-31T14:27:08.302Z,1.82
2016-12-31T14:28:19.703Z,1.86
2016-12-31T14:29:31.181Z,1.93
2016-12-31T14:30:42.579Z,1.98
2016-12-31T14:31:53.990Z,2.02
2016-12-31T14:33:05.386Z,1.9
2016-12-31T14:34:16.797Z,1.92
2016-12-31T14:35:28.248Z,1.9
2016-12-31T14:36:39.645Z,1.93
2016-12-31T14:37:51.043Z,1.93
2016-12-31T14:39:02.452Z,1.9
2016-12-31T14:40:13.854Z,1.92
2016-12-31T14:41:25.308Z,2.01
2016-12-31T14:42:36.912Z,2.06
2016-12-31T14:43:48.519Z,2.08
2016-12-31T14:44:59.924Z,2.08
2016-12-31T14:46:11.332Z,2.2
2016-12-31T14:47:22.787Z,2.22
2016-12-31T14:48:34.183Z,2.15
2016-12-31T14:49:45.583Z,2.27
2016-12-31T14:50:56.986Z,2.36
2016-12-31T14:52:08.384Z,2.31
2016-12-31T14:53:19.827Z,2.31
2016-12-31T14:54:31.247Z,2.31
2016-12-31T14:55:42.648Z,2.3
2016-12-31T14:56:54.055Z,2.26
2016-12-31T14:58:05.469Z,2.42
2016-12-31T14:59:16.916Z,2.45
2016-12-31T15:00:28.511Z,2.48
2016-12-31T15:01:39.924Z,2.42
2016-12-31T15:02:51.536Z,2.31
2016-12-31T15:04:02.938Z,2.47
2016-12-31T15:05:14.393Z,2.4
2016-12-31T15:06:25.785Z,2.38
2016-12-31T15:07:37.175Z,2.48
2016-12-31T15:08:48.777Z,2.3
2016-12-31T15:10:00.175Z,2.47
2016-12-31T15:11:11.640Z,2.49
2016-12-31T15:12:23.037Z,2.49
2016-12-31T15:13:34.437Z,2.49
2016-12-31T15:14:45.849Z,2.42
2016-12-31T15:15:57.249Z,2.54
2016-12-31T15:17:08.695Z,2.6
2016-12-31T15:18:20.091Z,2.59
2016-12-31T15:19:31.692Z,2.62
2016-12-31T15:20:43.094Z,2.63
2016-12-31T15:21:54.699Z,2.58
2016-12-31T15:23:06.153Z,2.55
2016-12-31T15:24:17.554Z,2.77
2016-12-31T15:25:28.954Z,2.66
2016-12-31T15:26:40.364Z,2.65
2016-12-31T15:27:51.760Z,2.66
2016-12-31T15:29:03.208Z,2.66
2016-12-31T15:30:14.635Z,2.62
2016-12-31T15:31:26.046Z,2.54
2016-12-31T15:32:37.444Z,2.65
2016-12-31T15:33:48.845Z,2.63
2016-12-31T15:35:00.295Z,2.58
2016-12-31T15:36:11.694Z,2.63
2016-12-31T15:37:23.126Z,2.58
2016-12-31T15:38:34.532Z,2.58
2016-12-31T15:39:45.936Z,2.6